Aérodrome :
LOGIN :

S'inscrire | Disclaimer

   EN    FR    IT 

 










Légende :    VFR   VFR Marginal   IFR   IFR Intensif   IFR Très Intensif
Visi : 
Plafond : 
>= 8 km
>= 3000ft
5 à 8 km
1000 à 3000 ft
1500m à 5 km
500 à 1000 ft
800 à 1500m
200 à 500 ft
< 800m
< 200 ft
Symboles :   Orages  Brouillard  Fortes neiges  Fortes précipitations  Vent > 20 kt
SIGMETs :   Divers  Orages  Givrage  Turbulence  Onde Orograph.  Cendres Volcan.






- Altitude de l'aérodrome : 681 ft
- Code IATA : OSL


ENGM - Oslo Gardermoen

DERNIER METAR :
  • 050350Z 08006KT 050V130 9999 BKN025 13/08 Q0995 NOSIG

METARs EXPIRÉS :
  • 050320Z 10005KT 050V130 9999 BKN026 13/08 Q0996
  • 050250Z 09005KT 060V130 9999 SCT026 BKN031 13/08 Q0996
  • 050220Z 08005KT 040V130 9999 SCT028 BKN049 13/07 Q0996
  • 050150Z 09006KT 060V130 9999 SCT037 BKN058 13/07 Q0996
  • 050120Z 09005KT 060V120 9999 FEW035 BKN058 14/07 Q0997

TAF TAF ENGM
Valide du 05 à 00h jusqu'au 06 à 00h UTC


0500/0524 07008KT 9999 FEW020 BKN040
TEMPO 0506/0515 14015G25KT
PROB30
TEMPO 0512/0518 RA
TEMPO 0518/0524 4000 SHRA BKN007 SCT020CB



MET'MAP, la Météo Aéronautique d'un coup d'oeil ! - Copyright ORBIFLY Décembre 2007 - Disclaimer

ORBIFLY MET'MAP TEAM :

Programmation & Développement : Alexandra Zaïnal
Sur une idée originale de : Baudouin d'Aumeries
Assistance à la programmation : Marc-Olivier Méhu
Soutien technique & logistique : Manuel Goepfert

Contact : metmap@orbifly.com




SOURCES & CREDITS :

   NOAA